createdAt,value
2018-11-27T00:00:31.611Z,64.47
2018-11-27T00:03:02.287Z,64.40
2018-11-27T00:05:30.899Z,65.73
2018-11-27T00:08:04.436Z,62.23
2018-11-27T00:10:33.729Z,59.30
2018-11-27T00:13:01.451Z,68.47
2018-11-27T00:15:29.274Z,67.73
2018-11-27T00:17:57.017Z,61.20
2018-11-27T00:20:24.730Z,66.77
2018-11-27T00:22:52.492Z,69.20
2018-11-27T00:25:20.228Z,62.83
2018-11-27T00:27:47.970Z,64.20
2018-11-27T00:30:17.402Z,57.07
2018-11-27T00:32:45.128Z,57.00
2018-11-27T00:35:19.492Z,61.33
2018-11-27T00:37:47.180Z,59.00
2018-11-27T00:40:19.590Z,58.17
2018-11-27T00:42:47.323Z,77.80
2018-11-27T00:45:16.276Z,57.40
2018-11-27T00:47:44.964Z,59.73
2018-11-27T00:50:13.982Z,56.13
2018-11-27T00:52:41.703Z,51.93
2018-11-27T00:55:10.668Z,58.77
2018-11-27T00:57:38.928Z,60.40
2018-11-27T01:00:13.372Z,58.10
2018-11-27T01:02:41.130Z,57.57
2018-11-27T01:05:11.216Z,59.63
2018-11-27T01:07:38.988Z,56.10
2018-11-27T01:10:12.126Z,59.27
2018-11-27T01:12:39.931Z,55.20
2018-11-27T01:15:09.128Z,53.13
2018-11-27T01:17:36.840Z,60.23
2018-11-27T01:20:08.566Z,56.07
2018-11-27T01:22:36.304Z,60.93
2018-11-27T01:25:04.136Z,65.63
2018-11-27T01:27:31.878Z,60.83
2018-11-27T01:29:59.570Z,64.20
2018-11-27T01:32:27.260Z,61.90
2018-11-27T01:34:55.002Z,55.13
2018-11-27T01:37:22.679Z,58.37
2018-11-27T01:39:50.356Z,55.07
2018-11-27T01:42:18.094Z,58.10
2018-11-27T01:44:45.779Z,58.97
2018-11-27T01:47:13.468Z,60.80
2018-11-27T01:49:41.195Z,58.90
2018-11-27T01:52:14.544Z,53.97
2018-11-27T01:54:42.271Z,58.90
2018-11-27T01:57:09.998Z,60.73
2018-11-27T01:59:37.728Z,60.93
2018-11-27T02:02:05.884Z,59.07
2018-11-27T02:04:33.548Z,66.27
2018-11-27T02:07:06.852Z,52.77
2018-11-27T02:09:34.554Z,59.67
2018-11-27T02:12:02.229Z,57.83
2018-11-27T02:14:29.973Z,65.40
2018-11-27T02:16:57.677Z,55.27
2018-11-27T02:19:25.406Z,49.67
2018-11-27T02:21:53.196Z,59.43
2018-11-27T02:24:20.911Z,59.80
2018-11-27T02:26:48.608Z,59.60
2018-11-27T02:29:16.371Z,59.53
2018-11-27T02:31:44.053Z,60.87
2018-11-27T02:34:17.491Z,61.27
2018-11-27T02:36:45.249Z,62.27
2018-11-27T02:39:12.958Z,52.60
2018-11-27T02:41:40.661Z,61.10
2018-11-27T02:44:08.369Z,64.33
2018-11-27T02:46:36.045Z,59.63
2018-11-27T02:49:03.833Z,57.30
2018-11-27T02:51:31.521Z,58.90
2018-11-27T02:53:59.241Z,54.90
2018-11-27T02:56:32.519Z,51.23
2018-11-27T02:59:05.717Z,57.27
2018-11-27T03:01:33.437Z,61.20
2018-11-27T03:04:01.173Z,60.60
2018-11-27T03:06:34.522Z,52.33
2018-11-27T03:09:02.241Z,51.27
2018-11-27T03:11:29.924Z,52.80
2018-11-27T03:13:57.657Z,63.70
2018-11-27T03:16:25.385Z,55.40
2018-11-27T03:18:53.579Z,56.33
2018-11-27T03:21:21.353Z,49.70
2018-11-27T03:23:49.080Z,55.53
2018-11-27T03:26:16.785Z,53.43
2018-11-27T03:28:44.521Z,55.60
2018-11-27T03:31:12.322Z,59.00
2018-11-27T03:33:40.060Z,59.13
2018-11-27T03:36:07.825Z,64.47
2018-11-27T03:38:41.225Z,53.13
2018-11-27T03:41:08.978Z,63.37
2018-11-27T03:43:36.740Z,51.70
2018-11-27T03:46:04.925Z,54.70
2018-11-27T03:48:32.677Z,58.13
2018-11-27T03:51:00.370Z,52.93
2018-11-27T03:53:28.085Z,53.33
2018-11-27T03:56:01.392Z,59.33
2018-11-27T03:58:29.069Z,55.17
2018-11-27T04:00:56.765Z,55.13
2018-11-27T04:03:24.488Z,50.67
2018-11-27T04:05:52.194Z,52.73
2018-11-27T04:08:19.904Z,52.23
2018-11-27T04:10:53.273Z,47.00
2018-11-27T04:13:20.960Z,61.50
2018-11-27T04:15:48.638Z,60.23
2018-11-27T04:18:16.360Z,50.00
2018-11-27T04:20:44.045Z,58.53
2018-11-27T04:23:11.738Z,53.90
2018-11-27T04:25:39.485Z,56.87
2018-11-27T04:28:07.624Z,62.10
2018-11-27T04:30:35.346Z,57.47
2018-11-27T04:33:03.069Z,64.27
2018-11-27T04:35:36.621Z,70.20
2018-11-27T04:38:04.934Z,77.27
2018-11-27T04:40:32.617Z,71.77
2018-11-27T04:43:00.330Z,62.73
2018-11-27T04:45:28.062Z,69.00
2018-11-27T04:47:55.757Z,55.90
2018-11-27T04:50:23.464Z,68.57
2018-11-27T04:52:51.201Z,64.50
2018-11-27T04:55:24.434Z,56.97
2018-11-27T04:57:57.999Z,72.70
2018-11-27T05:00:26.481Z,64.93
2018-11-27T05:02:54.197Z,69.13
2018-11-27T05:05:22.221Z,69.90
2018-11-27T05:07:49.973Z,68.50
2018-11-27T05:10:19.454Z,61.10
2018-11-27T05:12:47.253Z,66.27
2018-11-27T05:15:17.189Z,67.60
2018-11-27T05:17:48.036Z,68.13
2018-11-27T05:20:13.737Z,74.03
2018-11-27T05:22:41.470Z,68.57
2018-11-27T05:25:15.405Z,66.93
2018-11-27T05:27:51.868Z,79.67
2018-11-27T05:30:21.702Z,90.83
2018-11-27T05:32:49.460Z,152.43
2018-11-27T05:35:18.394Z,154.13
2018-11-27T05:37:47.849Z,169.47
2018-11-27T05:40:17.500Z,188.03
2018-11-27T05:42:45.484Z,177.27
2018-11-27T05:45:19.389Z,178.83
2018-11-27T05:47:47.193Z,168.27
2018-11-27T05:50:20.794Z,177.57
2018-11-27T05:52:48.560Z,167.23
2018-11-27T05:55:16.684Z,152.80
2018-11-27T05:57:45.806Z,141.40
2018-11-27T06:00:26.584Z,139.27
2018-11-27T06:02:59.204Z,135.20
2018-11-27T06:05:27.021Z,148.70
2018-11-27T06:07:54.812Z,128.97
2018-11-27T06:10:22.890Z,142.50
2018-11-27T06:12:56.163Z,119.83
2018-11-27T06:15:24.454Z,108.17
2018-11-27T06:17:53.492Z,117.77
2018-11-27T06:20:21.880Z,105.60
2018-11-27T06:22:49.754Z,104.50
2018-11-27T06:25:21.562Z,117.90
2018-11-27T06:27:50.823Z,106.60
2018-11-27T06:30:20.624Z,92.03
2018-11-27T06:32:48.311Z,92.50
2018-11-27T06:35:21.310Z,95.80
2018-11-27T06:37:49.026Z,98.93
2018-11-27T06:40:18.076Z,128.37
2018-11-27T06:42:51.623Z,131.33
2018-11-27T06:45:20.204Z,127.10
2018-11-27T06:47:48.908Z,120.07
2018-11-27T06:50:17.586Z,118.27
2018-11-27T06:52:45.294Z,102.10
2018-11-27T06:55:14.111Z,111.10
2018-11-27T06:57:42.916Z,109.67
2018-11-27T07:00:11.996Z,106.37
2018-11-27T07:02:40.646Z,99.10
2018-11-27T07:05:09.636Z,121.50
2018-11-27T07:07:37.334Z,126.93
2018-11-27T07:10:09.218Z,106.27
2018-11-27T07:12:36.974Z,109.60
2018-11-27T07:15:06.256Z,100.90
2018-11-27T07:17:34.000Z,109.17
2018-11-27T07:20:07.483Z,131.10
2018-11-27T07:22:35.233Z,120.07
2018-11-27T07:25:03.002Z,121.93
2018-11-27T07:27:30.752Z,96.90
2018-11-27T07:29:58.487Z,94.47
2018-11-27T07:32:26.174Z,101.87
2018-11-27T07:34:53.911Z,91.73
2018-11-27T07:37:21.653Z,103.00
2018-11-27T07:39:49.338Z,108.37
2018-11-27T07:42:17.073Z,125.80
2018-11-27T07:44:44.771Z,124.87
2018-11-27T07:47:12.523Z,144.17
2018-11-27T07:49:40.285Z,102.80
2018-11-27T07:52:07.978Z,91.77
2018-11-27T07:54:35.674Z,116.57
2018-11-27T07:57:03.487Z,115.83
2018-11-27T07:59:31.161Z,128.67
2018-11-27T08:01:58.871Z,121.03
2018-11-27T08:04:26.634Z,106.50
2018-11-27T08:06:59.815Z,131.20
2018-11-27T08:09:27.538Z,109.37
2018-11-27T08:11:55.266Z,123.90
2018-11-27T08:14:22.939Z,131.87
2018-11-27T08:16:50.649Z,112.63
2018-11-27T08:19:18.367Z,103.33
2018-11-27T08:21:46.117Z,124.03
2018-11-27T08:24:13.867Z,111.83
2018-11-27T08:26:47.264Z,114.40
2018-11-27T08:29:16.645Z,104.63
2018-11-27T08:31:44.355Z,114.90
2018-11-27T08:34:17.612Z,112.23
2018-11-27T08:36:45.337Z,108.80
2018-11-27T08:39:13.023Z,122.77
2018-11-27T08:41:40.705Z,108.37
2018-11-27T08:44:08.464Z,118.37
2018-11-27T08:46:36.144Z,100.80
2018-11-27T08:49:04.035Z,126.33
2018-11-27T08:51:31.809Z,119.43
2018-11-27T08:54:05.721Z,104.27
2018-11-27T08:56:33.476Z,108.80
2018-11-27T08:59:01.202Z,86.27
2018-11-27T09:01:28.887Z,104.70
2018-11-27T09:03:56.655Z,85.00
2018-11-27T09:06:24.441Z,82.87
2018-11-27T09:08:52.160Z,85.87
2018-11-27T09:11:19.911Z,88.07
2018-11-27T09:13:47.651Z,107.23
2018-11-27T09:16:15.353Z,89.60
2018-11-27T09:18:48.871Z,99.70
2018-11-27T09:21:22.199Z,94.67
2018-11-27T09:23:50.005Z,89.53
2018-11-27T09:26:17.764Z,81.83
2018-11-27T09:28:45.484Z,81.93
2018-11-27T09:31:13.232Z,79.67
2018-11-27T09:33:40.936Z,81.23
2018-11-27T09:36:08.700Z,64.27
2018-11-27T09:38:36.479Z,66.07
2018-11-27T09:41:10.629Z,62.90
2018-11-27T09:43:37.552Z,69.70
2018-11-27T09:46:05.847Z,77.37
2018-11-27T09:48:33.554Z,64.20
2018-11-27T09:51:01.307Z,66.90
2018-11-27T09:53:28.973Z,65.13
2018-11-27T09:55:56.714Z,49.37
2018-11-27T09:58:30.080Z,60.13
2018-11-27T10:00:57.792Z,38.83
2018-11-27T10:03:25.504Z,49.27
2018-11-27T10:05:53.247Z,50.60
2018-11-27T10:08:20.948Z,64.13
2018-11-27T10:10:48.672Z,61.37
2018-11-27T10:13:16.390Z,59.57
2018-11-27T10:15:44.104Z,67.93
2018-11-27T10:18:11.843Z,56.73
2018-11-27T10:20:40.868Z,60.20
2018-11-27T10:23:14.949Z,58.33
2018-11-27T10:25:42.664Z,61.43
2018-11-27T10:28:10.360Z,64.20
2018-11-27T10:30:38.125Z,47.47
2018-11-27T10:33:08.385Z,62.33
2018-11-27T10:35:42.476Z,51.00
2018-11-27T10:38:10.209Z,51.33
2018-11-27T10:40:37.908Z,52.00
2018-11-27T10:43:11.765Z,44.37
2018-11-27T10:45:39.445Z,48.53
2018-11-27T10:48:07.192Z,51.83
2018-11-27T10:50:34.935Z,55.77
2018-11-27T10:53:09.054Z,58.33
2018-11-27T10:55:42.424Z,51.07
2018-11-27T10:58:10.171Z,56.37
2018-11-27T11:00:49.200Z,50.10
2018-11-27T11:03:23.580Z,55.93
2018-11-27T11:05:52.492Z,56.87
2018-11-27T11:08:20.573Z,61.37
2018-11-27T11:10:48.356Z,51.23
2018-11-27T11:13:16.061Z,40.97
2018-11-27T11:15:43.758Z,59.27
2018-11-27T11:18:11.447Z,49.67
2018-11-27T11:20:44.769Z,45.30
2018-11-27T11:23:12.472Z,49.93
2018-11-27T11:25:40.148Z,56.47
2018-11-27T11:28:08.910Z,56.27
2018-11-27T11:30:36.740Z,50.43
2018-11-27T11:33:05.163Z,59.53
2018-11-27T11:35:32.892Z,49.63
2018-11-27T11:38:00.776Z,48.33
2018-11-27T11:40:34.182Z,47.50
2018-11-27T11:43:01.884Z,50.07
2018-11-27T11:45:29.584Z,93.90
2018-11-27T11:47:57.363Z,51.73
2018-11-27T11:50:26.266Z,51.03
2018-11-27T11:52:56.532Z,68.33
2018-11-27T11:55:24.272Z,54.50
2018-11-27T11:57:52.010Z,62.53
2018-11-27T12:00:24.279Z,61.37
2018-11-27T12:02:51.958Z,54.73
2018-11-27T12:05:24.870Z,46.30
2018-11-27T12:07:47.511Z,67.60
2018-11-27T12:10:16.224Z,45.83
2018-11-27T12:12:45.184Z,45.27
2018-11-27T12:15:13.968Z,103.60
2018-11-27T12:17:42.342Z,60.13
2018-11-27T12:20:14.207Z,55.90
2018-11-27T12:22:43.438Z,60.37
2018-11-27T12:25:17.800Z,57.10
2018-11-27T12:27:45.542Z,56.07
2018-11-27T12:30:20.632Z,66.20
2018-11-27T12:32:48.382Z,59.47
2018-11-27T12:35:16.626Z,59.27
2018-11-27T12:37:44.468Z,56.17
2018-11-27T12:40:15.187Z,66.70
2018-11-27T12:42:42.956Z,64.37
2018-11-27T12:45:12.088Z,65.97
2018-11-27T12:47:39.858Z,75.37
2018-11-27T12:50:14.055Z,73.53
2018-11-27T12:52:47.298Z,69.77
2018-11-27T12:55:17.054Z,77.00
2018-11-27T12:57:44.815Z,69.73
2018-11-27T13:00:24.663Z,69.33
2018-11-27T13:02:52.396Z,76.93
2018-11-27T13:05:33.668Z,84.90
2018-11-27T13:08:02.991Z,73.03
2018-11-27T13:10:30.728Z,89.00
2018-11-27T13:13:05.494Z,77.20
2018-11-27T13:15:34.524Z,78.37
2018-11-27T13:18:02.241Z,86.77
2018-11-27T13:20:29.959Z,75.70
2018-11-27T13:22:57.668Z,86.67
2018-11-27T13:25:25.388Z,80.20
2018-11-27T13:27:54.866Z,70.13
2018-11-27T13:30:26.538Z,76.87
2018-11-27T13:32:58.974Z,71.63
2018-11-27T13:35:26.712Z,75.67
2018-11-27T13:37:54.620Z,72.90
2018-11-27T13:40:27.960Z,88.97
2018-11-27T13:42:56.823Z,81.80
2018-11-27T13:45:24.563Z,73.17
2018-11-27T13:47:52.263Z,79.53
2018-11-27T13:50:21.132Z,77.07
2018-11-27T13:52:49.481Z,71.03
2018-11-27T13:55:20.187Z,61.10
2018-11-27T13:57:47.907Z,68.43
2018-11-27T14:00:16.887Z,54.80
2018-11-27T14:02:49.283Z,70.90
2018-11-27T14:05:18.074Z,64.00
2018-11-27T14:07:46.680Z,75.10
2018-11-27T14:10:14.497Z,87.00
2018-11-27T14:12:42.314Z,75.93
2018-11-27T14:15:21.314Z,91.17
2018-11-27T14:17:49.531Z,76.20
2018-11-27T14:20:17.297Z,82.87
2018-11-27T14:22:46.090Z,94.20
2018-11-27T14:25:14.245Z,103.70
2018-11-27T14:27:42.125Z,103.23
2018-11-27T14:30:12.493Z,113.33
2018-11-27T14:32:40.210Z,124.47
2018-11-27T14:35:07.953Z,142.93
2018-11-27T14:37:35.719Z,172.30
2018-11-27T14:40:06.583Z,165.40
2018-11-27T14:42:34.321Z,151.63
2018-11-27T14:45:02.103Z,161.40
2018-11-27T14:47:30.445Z,151.97
2018-11-27T14:50:03.974Z,183.27
2018-11-27T14:52:32.785Z,163.80
2018-11-27T14:55:07.443Z,160.77
2018-11-27T14:57:35.324Z,163.80
2018-11-27T15:00:03.490Z,153.07
2018-11-27T15:02:31.251Z,141.53
2018-11-27T15:05:05.960Z,136.60
2018-11-27T15:07:33.699Z,149.53
2018-11-27T15:10:01.495Z,149.50
2018-11-27T15:12:29.267Z,147.90
2018-11-27T15:14:56.993Z,159.70
2018-11-27T15:17:24.851Z,149.73
2018-11-27T15:19:58.143Z,128.77
2018-11-27T15:22:25.826Z,138.93
2018-11-27T15:24:53.586Z,168.27
2018-11-27T15:27:21.358Z,151.77
2018-11-27T15:29:49.088Z,194.90
2018-11-27T15:32:16.820Z,218.63
2018-11-27T15:34:44.582Z,213.73
2018-11-27T15:37:23.812Z,190.90
2018-11-27T15:39:51.560Z,177.57
2018-11-27T15:42:19.383Z,192.00
2018-11-27T15:44:47.107Z,202.27
2018-11-27T15:47:14.870Z,205.93
2018-11-27T15:49:42.783Z,189.87
2018-11-27T15:52:10.669Z,203.30
2018-11-27T15:54:38.480Z,188.30
2018-11-27T15:57:06.270Z,194.83
2018-11-27T15:59:34.032Z,199.47
2018-11-27T16:02:01.963Z,202.07
2018-11-27T16:04:30.948Z,199.13
2018-11-27T16:07:04.404Z,180.07
2018-11-27T16:09:32.124Z,186.13
2018-11-27T16:12:00.088Z,185.03
2018-11-27T16:14:27.840Z,185.63
2018-11-27T16:16:55.626Z,180.80
2018-11-27T16:19:23.316Z,183.23
2018-11-27T16:22:02.245Z,191.60
2018-11-27T16:24:35.610Z,184.17
2018-11-27T16:27:03.400Z,174.73
2018-11-27T16:29:31.114Z,174.27
2018-11-27T16:31:58.868Z,179.33
2018-11-27T16:34:26.651Z,176.40
2018-11-27T16:36:54.392Z,172.93
2018-11-27T16:39:22.100Z,189.43
2018-11-27T16:41:49.866Z,209.03
2018-11-27T16:44:17.611Z,220.13
2018-11-27T16:46:45.352Z,208.50
2018-11-27T16:49:13.100Z,202.60
2018-11-27T16:51:40.804Z,209.67
2018-11-27T16:54:08.528Z,266.97
2018-11-27T16:56:36.306Z,220.70
2018-11-27T16:59:04.060Z,223.73
2018-11-27T17:01:31.798Z,225.00
2018-11-27T17:03:59.582Z,252.10
2018-11-27T17:06:28.968Z,215.50
2018-11-27T17:08:57.458Z,193.63
2018-11-27T17:11:25.334Z,206.53
2018-11-27T17:13:53.059Z,203.80
2018-11-27T17:16:20.784Z,238.40
2018-11-27T17:18:48.569Z,230.97
2018-11-27T17:21:16.292Z,204.60
2018-11-27T17:23:44.016Z,219.00
2018-11-27T17:26:11.844Z,215.87
2018-11-27T17:28:39.576Z,221.30
2018-11-27T17:31:13.512Z,206.10
2018-11-27T17:33:48.876Z,200.50
2018-11-27T17:36:16.650Z,216.57
2018-11-27T17:38:44.400Z,250.43
2018-11-27T17:41:12.116Z,238.50
2018-11-27T17:43:40.224Z,236.40
2018-11-27T17:46:08.112Z,222.43
2018-11-27T17:48:35.848Z,218.03
2018-11-27T17:51:03.676Z,198.13
2018-11-27T17:53:31.402Z,216.20
2018-11-27T17:56:04.940Z,207.93
2018-11-27T17:58:32.873Z,202.00
2018-11-27T18:01:00.578Z,211.30
2018-11-27T18:03:28.294Z,224.20
2018-11-27T18:05:56.315Z,194.40
2018-11-27T18:08:24.044Z,215.87
2018-11-27T18:10:52.200Z,240.17
2018-11-27T18:13:19.909Z,244.37
2018-11-27T18:15:47.647Z,251.90
2018-11-27T18:18:15.392Z,274.67
2018-11-27T18:20:43.278Z,260.20
2018-11-27T18:23:10.982Z,282.60
2018-11-27T18:25:38.724Z,244.53
2018-11-27T18:28:06.478Z,246.53
2018-11-27T18:30:34.160Z,242.07
2018-11-27T18:33:01.904Z,249.07
2018-11-27T18:35:29.643Z,267.80
2018-11-27T18:37:57.360Z,261.27
2018-11-27T18:40:30.848Z,258.00
2018-11-27T18:42:58.684Z,255.20
2018-11-27T18:45:28.993Z,279.00
2018-11-27T18:47:56.823Z,240.90
2018-11-27T18:50:25.734Z,271.53
2018-11-27T18:52:59.168Z,240.17
2018-11-27T18:55:26.883Z,277.93
2018-11-27T18:57:57.271Z,278.63
2018-11-27T19:00:26.174Z,273.13
2018-11-27T19:02:54.797Z,255.17
2018-11-27T19:05:22.662Z,274.03
2018-11-27T19:07:50.643Z,242.93
2018-11-27T19:10:20.590Z,269.67
2018-11-27T19:12:48.541Z,252.17
2018-11-27T19:15:49.502Z,272.07
2018-11-27T19:18:21.388Z,261.23
2018-11-27T19:20:49.119Z,266.43
2018-11-27T19:23:17.943Z,245.27
2018-11-27T19:25:45.881Z,274.20
2018-11-27T19:28:13.720Z,260.53
2018-11-27T19:30:41.497Z,297.07
2018-11-27T19:33:09.589Z,284.50
2018-11-27T19:35:37.517Z,236.27
2018-11-27T19:38:07.016Z,222.37
2018-11-27T19:40:34.729Z,219.40
2018-11-27T19:43:02.489Z,210.33
2018-11-27T19:45:30.431Z,213.80
2018-11-27T19:47:58.453Z,229.27
2018-11-27T19:50:26.201Z,236.67
2018-11-27T19:52:55.206Z,258.87
2018-11-27T19:55:22.915Z,231.87
2018-11-27T19:57:50.711Z,258.67
2018-11-27T20:00:25.848Z,245.90
2018-11-27T20:02:54.800Z,262.23
2018-11-27T20:05:23.593Z,294.13
2018-11-27T20:07:51.432Z,284.70
2018-11-27T20:10:19.219Z,269.80
2018-11-27T20:12:46.996Z,293.73
2018-11-27T20:15:23.196Z,293.53
2018-11-27T20:17:51.481Z,339.07
2018-11-27T20:20:20.404Z,345.40
2018-11-27T20:22:48.157Z,388.13
2018-11-27T20:25:17.122Z,362.63
2018-11-27T20:27:44.851Z,353.93
2018-11-27T20:30:15.913Z,373.27
2018-11-27T20:32:45.271Z,361.87
2018-11-27T20:35:13.895Z,365.97
2018-11-27T20:37:41.799Z,369.53
2018-11-27T20:40:10.947Z,371.00
2018-11-27T20:42:38.652Z,341.03
2018-11-27T20:45:12.606Z,349.17
2018-11-27T20:47:40.470Z,342.97
2018-11-27T20:50:12.366Z,352.50
2018-11-27T20:52:43.655Z,330.57
2018-11-27T20:55:11.477Z,345.50
2018-11-27T20:57:39.466Z,363.67
2018-11-27T21:00:21.418Z,380.70
2018-11-27T21:02:49.849Z,384.90
2018-11-27T21:05:17.649Z,378.03
2018-11-27T21:07:45.361Z,363.63
2018-11-27T21:10:13.957Z,346.53
2018-11-27T21:12:42.375Z,342.80
2018-11-27T21:15:12.314Z,357.40
2018-11-27T21:17:40.053Z,370.83
2018-11-27T21:20:10.965Z,339.03
2018-11-27T21:22:38.675Z,326.17
2018-11-27T21:25:08.954Z,312.73
2018-11-27T21:27:36.697Z,307.83
2018-11-27T21:30:10.105Z,311.90
2018-11-27T21:32:37.833Z,320.20
2018-11-27T21:35:07.033Z,323.83
2018-11-27T21:37:34.759Z,326.27
2018-11-27T21:40:02.631Z,333.17
2018-11-27T21:42:35.858Z,320.30
2018-11-27T21:45:04.253Z,326.77
2018-11-27T21:47:37.881Z,336.53
2018-11-27T21:50:08.145Z,332.20
2018-11-27T21:52:35.889Z,341.30
2018-11-27T21:55:04.988Z,336.73
2018-11-27T21:57:38.904Z,340.13
2018-11-27T22:00:10.067Z,344.70
2018-11-27T22:02:37.964Z,349.87
2018-11-27T22:05:06.713Z,347.57
2018-11-27T22:07:34.445Z,349.10
2018-11-27T22:10:02.376Z,311.80
2018-11-27T22:12:30.063Z,308.03
2018-11-27T22:17:32.012Z,279.57
2018-11-27T22:19:59.750Z,277.60
2018-11-27T22:22:27.430Z,232.13
2018-11-27T22:24:55.208Z,231.20
2018-11-27T22:27:22.994Z,235.97
2018-11-27T22:29:50.721Z,246.17
2018-11-27T22:32:18.471Z,260.30
2018-11-27T22:34:46.242Z,263.87
2018-11-27T22:37:13.914Z,260.40
2018-11-27T22:39:47.346Z,238.40
2018-11-27T22:42:15.144Z,250.40
2018-11-27T22:44:42.824Z,275.37
2018-11-27T22:47:10.622Z,241.90
2018-11-27T22:49:38.345Z,270.67
2018-11-27T22:52:11.868Z,289.57
2018-11-27T22:54:39.544Z,348.23
2018-11-27T22:57:12.868Z,367.20
2018-11-27T22:59:46.320Z,299.93
2018-11-27T23:02:14.042Z,326.47
2018-11-27T23:04:41.740Z,300.80
2018-11-27T23:07:09.485Z,282.63
2018-11-27T23:09:37.246Z,286.43
2018-11-27T23:12:10.442Z,289.33
2018-11-27T23:14:38.188Z,293.90
2018-11-27T23:17:05.889Z,267.73
2018-11-27T23:19:33.599Z,259.17
2018-11-27T23:22:01.312Z,288.30
2018-11-27T23:24:29.043Z,271.37
2018-11-27T23:26:56.742Z,304.37
2018-11-27T23:29:24.469Z,313.83
2018-11-27T23:31:52.157Z,314.43
2018-11-27T23:34:19.869Z,312.80
2018-11-27T23:36:47.579Z,327.70
2018-11-27T23:39:15.300Z,322.73
2018-11-27T23:41:43.006Z,323.87
2018-11-27T23:44:10.722Z,330.03
2018-11-27T23:46:38.438Z,349.07
2018-11-27T23:49:12.028Z,320.23
2018-11-27T23:51:39.708Z,326.33
2018-11-27T23:54:07.368Z,318.97
2018-11-27T23:56:35.094Z,317.27
2018-11-27T23:59:02.744Z,309.20
